Time;durP1;ratioP1;P1;durP2;ratioP2;P2;SDS_P1;SDS_P2;PMS_P1;PMS_P2;Temp;Humidity;BMP_temperature;BMP_pressure;BME280_temperature;BME280_humidity;BME280_pressure;Samples;Min_cycle;Max_cycle;Signal;HPM_P1;HPM_P2
2022/09/26 00:00:45;;;;;;;30.40;17.90;;;22.40;67.20;;;;;;223742;1267;22775;-47
2022/09/26 00:06:05;;;;;;;28.40;17.50;;;22.40;66.90;;;;;;220190;1267;26922;-47
2022/09/26 00:11:13;;;;;;;26.80;16.40;;;22.30;66.60;;;;;;220138;1267;25565;-45
2022/09/26 00:16:17;;;;;;;29.40;17.70;;;22.30;66.80;;;;;;220145;1267;25219;-45
2022/09/26 00:21:22;;;;;;;27.30;16.90;;;22.30;66.70;;;;;;220401;1267;22882;-46
2022/09/26 00:26:27;;;;;;;21.80;15.70;;;22.30;66.80;;;;;;220445;1267;22957;-46
2022/09/26 00:31:33;;;;;;;26.50;16.60;;;22.30;66.90;;;;;;221484;1269;22760;-46
2022/09/26 00:36:37;;;;;;;28.10;16.60;;;22.20;66.70;;;;;;223521;1267;22574;-45
2022/09/26 00:41:41;;;;;;;25.90;16.30;;;22.30;66.60;;;;;;220681;1268;24216;-45
2022/09/26 00:46:47;;;;;;;23.60;16.20;;;22.30;69.00;;;;;;220489;1267;24374;-45
2022/09/26 00:52:14;;;;;;;27.20;16.60;;;22.30;70.00;;;;;;220422;1267;25687;-46
2022/09/26 00:57:23;;;;;;;20.80;14.50;;;22.30;69.70;;;;;;220371;1268;23907;-50
2022/09/26 01:02:28;;;;;;;21.90;14.50;;;22.30;69.20;;;;;;220622;1268;24312;-52
2022/09/26 01:07:33;;;;;;;24.30;15.20;;;22.20;68.90;;;;;;220581;1267;22613;-45
2022/09/26 01:12:37;;;;;;;24.50;15.40;;;22.20;69.10;;;;;;220293;1268;24678;-48
2022/09/26 01:17:43;;;;;;;25.80;15.60;;;22.20;69.30;;;;;;220252;1268;22567;-49
2022/09/26 01:23:07;;;;;;;24.90;15.30;;;22.10;68.50;;;;;;220175;1267;22765;-46
2022/09/26 01:29:06;;;;;;;24.40;14.60;;;22.20;68.60;;;;;;220188;1270;23966;-47
2022/09/26 01:34:23;;;;;;;22.70;15.00;;;22.10;68.80;;;;;;220224;1267;22689;-46
2022/09/26 01:39:30;;;;;;;23.10;14.50;;;22.10;68.40;;;;;;220215;1269;26456;-46
2022/09/26 01:44:47;;;;;;;21.00;14.20;;;22.10;68.30;;;;;;220030;1270;24260;-44
2022/09/26 01:50:01;;;;;;;22.20;13.90;;;22.10;67.80;;;;;;220357;1267;24285;-49
2022/09/26 01:55:13;;;;;;;19.60;13.50;;;22.10;68.30;;;;;;220457;1267;25447;-45
2022/09/26 02:00:18;;;;;;;19.50;13.30;;;22.00;68.10;;;;;;220471;1267;24015;-46
2022/09/26 02:05:31;;;;;;;19.10;13.60;;;22.00;68.30;;;;;;220221;1268;22533;-50
2022/09/26 02:10:59;;;;;;;20.90;13.90;;;22.00;68.20;;;;;;220234;1267;22689;-47
2022/09/26 02:16:10;;;;;;;19.70;13.30;;;22.00;68.20;;;;;;220267;1267;24334;-47
2022/09/26 02:21:18;;;;;;;19.80;12.90;;;21.90;68.40;;;;;;220432;1268;24273;-47
2022/09/26 02:26:22;;;;;;;19.60;13.30;;;21.90;68.00;;;;;;220246;1270;22579;-48
2022/09/26 02:31:35;;;;;;;18.00;12.30;;;22.00;68.00;;;;;;220436;1267;25509;-46
2022/09/26 02:36:39;;;;;;;18.70;12.30;;;21.90;68.00;;;;;;220247;1268;24298;-49
2022/09/26 02:41:56;;;;;;;17.40;11.70;;;21.90;67.90;;;;;;220167;1267;24206;-50
2022/09/26 02:47:02;;;;;;;16.20;12.00;;;21.90;67.90;;;;;;220367;1267;22532;-49
2022/09/26 02:53:06;;;;;;;18.00;13.10;;;21.90;67.90;;;;;;220384;1268;22703;-46
2022/09/26 02:58:46;;;;;;;18.20;12.20;;;21.90;68.00;;;;;;219987;1267;22745;-47
2022/09/26 03:03:56;;;;;;;19.40;12.20;;;21.80;68.00;;;;;;220130;1267;25246;-44
2022/09/26 03:09:02;;;;;;;17.20;12.90;;;21.80;68.00;;;;;;220284;1267;24284;-46
2022/09/26 03:14:10;;;;;;;18.00;12.60;;;21.80;68.00;;;;;;220057;1268;25338;-44
2022/09/26 03:19:25;;;;;;;21.70;12.40;;;21.80;68.20;;;;;;220096;1267;24237;-44
2022/09/26 03:24:29;;;;;;;17.90;12.10;;;21.80;67.60;;;;;;224749;1268;25414;-45
2022/09/26 03:29:33;;;;;;;16.20;11.00;;;21.80;68.40;;;;;;220056;1270;24216;-46
2022/09/26 03:34:39;;;;;;;19.80;11.20;;;21.80;68.00;;;;;;220364;1267;22657;-46
2022/09/26 03:39:44;;;;;;;19.10;12.20;;;21.80;68.00;;;;;;220325;1267;25360;-47
2022/09/26 03:45:03;;;;;;;15.30;11.10;;;21.80;68.40;;;;;;220248;1266;25294;-44
2022/09/26 03:50:26;;;;;;;14.90;11.10;;;21.70;68.00;;;;;;220520;1267;24696;-46
2022/09/26 03:55:30;;;;;;;15.10;10.70;;;21.70;68.10;;;;;;220920;1267;25545;-49
2022/09/26 04:00:34;;;;;;;13.90;10.60;;;21.70;68.00;;;;;;220441;1267;24272;-46
2022/09/26 04:05:38;;;;;;;15.30;10.60;;;21.70;68.10;;;;;;220721;1267;22665;-45
2022/09/26 04:10:42;;;;;;;15.20;10.60;;;21.70;68.10;;;;;;220681;1267;25542;-47
2022/09/26 04:15:54;;;;;;;13.90;10.30;;;21.70;68.10;;;;;;220394;1266;25174;-46
2022/09/26 04:21:04;;;;;;;15.30;10.60;;;21.60;68.10;;;;;;220590;1267;22564;-45
2022/09/26 04:26:16;;;;;;;12.50;10.10;;;21.60;68.10;;;;;;220537;1267;25319;-47
2022/09/26 04:31:26;;;;;;;14.20;11.20;;;21.60;68.40;;;;;;220519;1267;22690;-46
2022/09/26 04:36:37;;;;;;;15.90;11.40;;;21.60;68.10;;;;;;220492;1267;22511;-44
2022/09/26 04:41:40;;;;;;;14.40;10.30;;;21.60;68.10;;;;;;220352;1267;22616;-47
2022/09/26 04:46:44;;;;;;;13.70;10.20;;;21.60;68.10;;;;;;220238;1267;25526;-45
2022/09/26 04:51:48;;;;;;;14.30;10.20;;;21.60;67.60;;;;;;220404;1267;22525;-44
2022/09/26 04:56:52;;;;;;;13.20;10.00;;;21.50;68.00;;;;;;220145;1267;22585;-52
2022/09/26 05:01:56;;;;;;;15.00;10.60;;;21.50;68.00;;;;;;220494;1267;24248;-46
2022/09/26 05:07:13;;;;;;;13.30;9.40;;;21.50;68.00;;;;;;220140;1267;22525;-46
2022/09/26 05:12:20;;;;;;;14.50;9.90;;;21.50;68.00;;;;;;220317;1267;22537;-45
2022/09/26 05:17:28;;;;;;;11.90;9.60;;;21.50;68.00;;;;;;220234;1267;24380;-48
2022/09/26 05:22:33;;;;;;;13.30;9.50;;;21.50;68.00;;;;;;220364;1267;22560;-45
2022/09/26 05:27:39;;;;;;;13.00;9.70;;;21.50;68.30;;;;;;220690;1267;22543;-47
2022/09/26 05:32:47;;;;;;;13.60;9.50;;;21.50;68.00;;;;;;220233;1267;22525;-47
2022/09/26 05:37:59;;;;;;;11.50;8.90;;;21.40;67.90;;;;;;220236;1267;22544;-47
2022/09/26 05:43:03;;;;;;;12.10;8.90;;;21.40;67.90;;;;;;220528;1267;23901;-46
2022/09/26 05:48:08;;;;;;;13.50;9.00;;;21.40;68.40;;;;;;220336;1267;24984;-49
2022/09/26 05:53:12;;;;;;;13.00;8.50;;;21.40;68.00;;;;;;220308;1268;24206;-48
2022/09/26 05:58:20;;;;;;;11.90;8.70;;;21.40;68.00;;;;;;220166;1270;22724;-47
2022/09/26 06:03:44;;;;;;;13.70;8.50;;;21.40;68.10;;;;;;220315;1268;22567;-46
2022/09/26 06:08:51;;;;;;;15.70;8.60;;;21.40;68.30;;;;;;220337;1267;25496;-45
2022/09/26 06:14:01;;;;;;;12.70;8.60;;;21.40;68.60;;;;;;220396;1267;22535;-48
2022/09/26 06:19:07;;;;;;;11.10;8.60;;;21.50;68.40;;;;;;220107;1267;22557;-51
2022/09/26 06:24:12;;;;;;;13.20;9.00;;;21.40;68.80;;;;;;220059;1267;22518;-46
2022/09/26 06:29:17;;;;;;;12.90;8.20;;;21.50;68.70;;;;;;220250;1269;22547;-49
2022/09/26 06:34:22;;;;;;;16.00;8.60;;;21.40;68.90;;;;;;220770;1268;25529;-47
2022/09/26 06:39:43;;;;;;;13.20;8.30;;;21.40;69.00;;;;;;220198;1267;25485;-46
2022/09/26 06:44:47;;;;;;;15.40;8.80;;;21.40;69.00;;;;;;219761;1267;24256;-45
2022/09/26 06:50:01;;;;;;;15.50;7.80;;;21.40;68.90;;;;;;220192;1267;22553;-46
2022/09/26 06:55:09;;;;;;;13.70;7.60;;;21.40;68.40;;;;;;221414;1267;25358;-46
2022/09/26 07:00:14;;;;;;;12.90;8.20;;;21.40;68.70;;;;;;220714;1267;24211;-45
2022/09/26 07:05:37;;;;;;;13.10;8.30;;;21.40;68.40;;;;;;220687;1267;25233;-48
2022/09/26 07:10:42;;;;;;;16.10;8.70;;;21.40;68.40;;;;;;220700;1268;22551;-49
2022/09/26 07:15:57;;;;;;;16.80;8.30;;;21.40;68.60;;;;;;220456;1268;22728;-48
2022/09/26 07:21:12;;;;;;;13.30;7.60;;;21.40;68.50;;;;;;220167;1267;25522;-48
2022/09/26 07:26:24;;;;;;;12.00;7.30;;;21.40;68.00;;;;;;220787;1267;24288;-45
2022/09/26 07:31:29;;;;;;;11.70;8.00;;;21.30;68.30;;;;;;220355;1267;22755;-46
2022/09/26 07:36:42;;;;;;;12.10;8.10;;;21.30;68.30;;;;;;220744;1268;24307;-47
2022/09/26 07:41:46;;;;;;;14.40;7.50;;;21.30;68.30;;;;;;220424;1268;24202;-51
2022/09/26 07:52:13;;;;;;;11.40;7.90;;;21.30;68.60;;;;;;220612;1268;25472;-47
2022/09/26 07:57:35;;;;;;;14.40;8.50;;;21.40;69.10;;;;;;220639;1267;26478;-45
2022/09/26 08:03:03;;;;;;;12.90;7.10;;;21.50;69.90;;;;;;220427;1268;25496;-46
2022/09/26 08:08:09;;;;;;;14.70;7.90;;;21.50;70.10;;;;;;220550;1267;22559;-45
2022/09/26 08:13:42;;;;;;;12.50;7.50;;;21.50;69.60;;;;;;220660;1267;23942;-46
2022/09/26 08:18:57;;;;;;;12.90;6.90;;;21.50;69.80;;;;;;220649;1268;22518;-48
2022/09/26 08:24:01;;;;;;;11.20;6.70;;;21.50;69.50;;;;;;220234;1267;24268;-49
2022/09/26 08:29:23;;;;;;;14.80;7.60;;;21.50;69.60;;;;;;220123;1267;23184;-46
2022/09/26 08:34:33;;;;;;;22.60;8.40;;;21.50;69.70;;;;;;220347;1267;25413;-47
2022/09/26 08:40:03;;;;;;;14.60;6.40;;;21.60;69.60;;;;;;220330;1267;22664;-45
2022/09/26 08:46:42;;;;;;;14.50;6.00;;;21.60;69.50;;;;;;219524;1270;25635;-47
2022/09/26 08:51:58;;;;;;;11.80;6.50;;;21.60;69.40;;;;;;219928;1267;23146;-47
2022/09/26 08:57:12;;;;;;;12.30;7.80;;;21.60;69.30;;;;;;220093;1267;22787;-46
2022/09/26 09:02:43;;;;;;;14.80;6.40;;;21.60;69.60;;;;;;220253;1267;24083;-47
2022/09/26 09:07:53;;;;;;;17.70;7.40;;;21.50;69.80;;;;;;219995;1268;23023;-45
2022/09/26 09:13:22;;;;;;;16.80;7.30;;;21.60;69.60;;;;;;220248;1267;25406;-48
2022/09/26 09:19:04;;;;;;;10.50;6.30;;;21.50;69.60;;;;;;219399;1267;22588;-47
2022/09/26 09:25:02;;;;;;;12.20;6.50;;;21.60;69.60;;;;;;220375;1267;22564;-50
2022/09/26 09:30:44;;;;;;;10.90;6.30;;;21.60;69.70;;;;;;220544;1268;22537;-48
2022/09/26 09:36:43;;;;;;;10.10;6.30;;;21.60;69.60;;;;;;220413;1267;22765;-48
2022/09/26 09:42:30;;;;;;;12.20;6.00;;;21.60;69.60;;;;;;219762;1267;22636;-46
2022/09/26 09:47:37;;;;;;;9.70;6.10;;;21.70;69.80;;;;;;220512;1268;22547;-46
2022/09/26 09:53:05;;;;;;;12.60;6.20;;;21.70;69.30;;;;;;220297;1268;23011;-46
2022/09/26 09:58:40;;;;;;;12.30;6.20;;;21.70;69.40;;;;;;220680;1270;25376;-50
2022/09/26 10:04:03;;;;;;;12.80;6.50;;;21.70;69.50;;;;;;220541;1267;24255;-49
2022/09/26 10:09:17;;;;;;;11.00;5.80;;;21.70;69.70;;;;;;220515;1267;22554;-46
2022/09/26 10:15:25;;;;;;;19.00;6.20;;;21.70;69.30;;;;;;219452;1273;24221;-48
2022/09/26 10:20:56;;;;;;;13.30;6.20;;;21.80;69.00;;;;;;219591;1267;25204;-46
2022/09/26 10:26:02;;;;;;;13.40;6.30;;;21.80;68.90;;;;;;220006;1267;22550;-51
2022/09/26 10:31:20;;;;;;;13.50;6.50;;;21.70;68.90;;;;;;220302;1267;24197;-47
2022/09/26 10:36:42;;;;;;;18.50;5.90;;;21.70;69.30;;;;;;220514;1267;22867;-48
2022/09/26 10:41:48;;;;;;;17.90;6.30;;;21.70;68.90;;;;;;220360;1267;25504;-51
2022/09/26 10:46:57;;;;;;;15.20;5.50;;;21.70;68.90;;;;;;219629;1270;1308962;-53
2022/09/26 10:52:33;;;;;;;9.30;5.60;;;21.70;69.00;;;;;;220270;1271;25717;-47
2022/09/26 10:57:51;;;;;;;12.20;6.40;;;21.70;68.90;;;;;;220170;1268;24761;-48
2022/09/26 11:02:56;;;;;;;9.60;5.70;;;21.70;69.00;;;;;;220246;1267;22617;-52
2022/09/26 11:08:05;;;;;;;14.40;6.20;;;21.70;69.30;;;;;;220197;1268;22540;-52
2022/09/26 11:13:54;;;;;;;15.60;6.80;;;21.70;69.90;;;;;;219800;1271;22555;-52
2022/09/26 11:19:07;;;;;;;9.20;5.50;;;21.70;70.60;;;;;;220366;1270;22550;-47
2022/09/26 11:24:13;;;;;;;8.50;5.30;;;21.70;70.30;;;;;;220175;1268;22556;-47
2022/09/26 11:29:27;;;;;;;13.60;6.20;;;21.70;70.40;;;;;;220322;1268;22944;-47
2022/09/26 11:34:41;;;;;;;8.60;5.50;;;21.70;70.20;;;;;;220423;1268;24174;-48
2022/09/26 11:40:06;;;;;;;10.70;6.30;;;21.70;70.20;;;;;;220231;1267;22704;-48
2022/09/26 11:45:40;;;;;;;13.20;5.20;;;21.80;70.40;;;;;;220781;1268;23785;-48
2022/09/26 11:51:15;;;;;;;14.80;5.10;;;21.80;70.50;;;;;;220190;1269;22542;-45
2022/09/26 11:56:34;;;;;;;7.50;5.10;;;21.80;70.30;;;;;;220580;1268;22620;-52
2022/09/26 12:01:55;;;;;;;13.90;6.40;;;21.70;70.70;;;;;;219926;1268;26471;-47
2022/09/26 12:07:16;;;;;;;11.80;5.40;;;21.70;70.40;;;;;;220517;1268;24241;-46
2022/09/26 12:13:10;;;;;;;14.20;6.30;;;21.80;70.70;;;;;;219978;1268;24328;-49
2022/09/26 12:18:42;;;;;;;11.00;5.90;;;21.70;70.60;;;;;;219990;1269;24294;-47
2022/09/26 12:24:05;;;;;;;10.30;5.60;;;21.70;70.50;;;;;;219873;1266;24211;-47
2022/09/26 12:29:47;;;;;;;9.30;5.70;;;21.70;70.60;;;;;;220160;1268;25382;-48
2022/09/26 12:35:28;;;;;;;10.50;6.10;;;21.70;70.90;;;;;;220160;1268;22540;-45
2022/09/26 12:40:49;;;;;;;9.60;6.10;;;21.70;70.40;;;;;;220174;1268;22880;-45
2022/09/26 12:46:19;;;;;;;8.70;6.10;;;21.70;70.50;;;;;;220122;1271;25256;-46
2022/09/26 12:51:29;;;;;;;7.80;5.30;;;21.70;70.40;;;;;;219926;1268;26163;-45
2022/09/26 12:56:41;;;;;;;9.90;5.40;;;21.70;70.60;;;;;;219865;1268;25343;-46
2022/09/26 13:02:20;;;;;;;8.50;5.00;;;21.70;70.50;;;;;;219851;1268;23936;-44
2022/09/26 13:07:40;;;;;;;12.40;5.40;;;21.70;70.40;;;;;;220343;1268;22883;-45
2022/09/26 13:13:22;;;;;;;14.80;5.60;;;21.70;70.00;;;;;;219876;1269;22533;-49
2022/09/26 13:18:42;;;;;;;10.20;4.90;;;21.70;70.30;;;;;;219893;1268;25313;-49
2022/09/26 13:23:56;;;;;;;7.60;5.10;;;21.70;70.20;;;;;;219966;1268;24226;-45
2022/09/26 13:29:19;;;;;;;6.90;5.00;;;21.70;70.90;;;;;;220116;1268;22653;-47
2022/09/26 13:34:46;;;;;;;9.00;5.60;;;21.80;70.20;;;;;;220329;1268;23958;-47
2022/09/26 13:40:06;;;;;;;8.80;5.50;;;21.80;70.40;;;;;;219785;1268;22553;-45
2022/09/26 13:45:39;;;;;;;11.70;5.40;;;21.80;70.20;;;;;;219931;1268;24371;-50
2022/09/26 13:50:54;;;;;;;8.00;5.30;;;21.80;70.00;;;;;;220136;1268;22578;-46
2022/09/26 13:56:36;;;;;;;11.30;5.90;;;21.80;70.00;;;;;;219936;1268;24222;-50
2022/09/26 14:02:27;;;;;;;7.80;4.80;;;21.80;70.00;;;;;;220256;1268;22619;-48
2022/09/26 14:13:05;;;;;;;8.80;4.80;;;21.80;70.20;;;;;;220151;1267;24367;-46
2022/09/26 14:18:43;;;;;;;7.70;5.20;;;21.90;70.40;;;;;;220602;1268;22863;-46
2022/09/26 14:24:08;;;;;;;8.10;5.00;;;21.90;71.20;;;;;;220001;1270;24293;-45
2022/09/26 14:29:28;;;;;;;11.20;5.20;;;22.00;71.60;;;;;;219566;1269;25418;-50
2022/09/26 14:34:58;;;;;;;10.10;4.70;;;22.00;71.20;;;;;;220010;1267;25245;-44
2022/09/26 14:40:09;;;;;;;9.00;4.60;;;22.00;72.00;;;;;;220100;1268;26169;-45
2022/09/26 14:45:19;;;;;;;9.10;5.30;;;22.00;72.50;;;;;;220211;1268;22531;-45
2022/09/26 14:50:43;;;;;;;11.50;6.30;;;22.00;72.40;;;;;;220629;1268;22541;-47
2022/09/26 14:55:58;;;;;;;21.00;8.20;;;22.00;72.70;;;;;;220048;1268;25308;-47
2022/09/26 15:01:13;;;;;;;14.00;7.10;;;22.00;72.40;;;;;;221463;1267;22577;-45
2022/09/26 15:06:38;;;;;;;17.70;6.90;;;22.10;72.80;;;;;;220209;1267;24290;-46
2022/09/26 15:11:47;;;;;;;11.50;6.50;;;22.20;72.40;;;;;;220573;1267;24269;-48
2022/09/26 15:16:54;;;;;;;14.40;6.20;;;22.20;72.30;;;;;;219944;1267;22709;-46
2022/09/26 15:22:22;;;;;;;17.80;7.20;;;22.20;72.20;;;;;;220206;1267;22550;-44
2022/09/26 15:27:28;;;;;;;14.20;6.70;;;22.20;72.10;;;;;;219467;1267;24214;-46
2022/09/26 15:32:32;;;;;;;11.80;5.90;;;22.20;72.10;;;;;;219754;1268;25168;-46
2022/09/26 15:37:36;;;;;;;11.50;6.10;;;22.20;72.00;;;;;;220291;1268;24300;-48
2022/09/26 15:43:00;;;;;;;14.50;6.40;;;22.20;71.90;;;;;;220086;1267;26348;-50
2022/09/26 15:48:19;;;;;;;13.30;6.70;;;22.20;72.30;;;;;;219619;1270;23307;-46
2022/09/26 15:53:40;;;;;;;13.20;6.00;;;22.20;72.80;;;;;;220323;1267;24300;-48
2022/09/26 15:59:16;;;;;;;12.00;5.70;;;22.10;72.40;;;;;;220149;1267;22578;-46
2022/09/26 16:04:21;;;;;;;10.40;5.80;;;22.20;72.40;;;;;;220058;1267;24237;-49
2022/09/26 16:09:57;;;;;;;12.60;5.90;;;22.20;72.70;;;;;;220019;1267;22560;-52
2022/09/26 16:15:15;;;;;;;9.90;5.40;;;22.20;72.50;;;;;;220041;1267;22555;-45
2022/09/26 16:20:25;;;;;;;11.70;6.00;;;22.10;72.70;;;;;;219648;1267;22556;-47
2022/09/26 16:25:37;;;;;;;15.70;6.00;;;22.20;72.80;;;;;;220103;1267;22759;-48
2022/09/26 16:31:07;;;;;;;11.80;6.10;;;22.20;72.80;;;;;;219956;1267;24421;-50
2022/09/26 16:36:19;;;;;;;12.30;6.40;;;22.20;72.80;;;;;;220285;1267;22561;-49
2022/09/26 16:41:36;;;;;;;11.40;5.60;;;22.20;72.80;;;;;;219901;1267;24194;-50
2022/09/26 16:47:31;;;;;;;15.30;6.10;;;22.20;71.90;;;;;;220233;1267;22748;-53
2022/09/26 16:52:37;;;;;;;16.00;6.90;;;22.20;72.40;;;;;;219822;1267;22710;-48
2022/09/26 16:57:57;;;;;;;20.40;6.90;;;22.20;72.60;;;;;;219944;1267;24039;-58
2022/09/26 17:03:02;;;;;;;16.50;6.20;;;22.20;72.40;;;;;;220018;1267;22660;-58
2022/09/26 17:08:09;;;;;;;19.40;6.30;;;22.20;71.90;;;;;;220051;1267;26518;-56
2022/09/26 17:13:21;;;;;;;14.60;6.00;;;22.30;72.00;;;;;;220427;1267;22535;-56
2022/09/26 17:18:31;;;;;;;10.90;5.30;;;22.30;71.80;;;;;;220287;1267;22577;-56
2022/09/26 17:23:36;;;;;;;13.10;5.90;;;22.30;71.50;;;;;;220341;1267;24248;-56
2022/09/26 17:28:45;;;;;;;15.80;5.40;;;22.40;71.40;;;;;;220178;1267;22569;-56
2022/09/26 17:33:54;;;;;;;13.90;5.40;;;22.40;71.10;;;;;;220280;1267;24414;-55
2022/09/26 17:38:59;;;;;;;8.80;4.50;;;22.40;71.30;;;;;;220371;1267;22975;-57
2022/09/26 17:44:03;;;;;;;20.40;5.60;;;22.30;71.10;;;;;;220286;1267;24211;-58
2022/09/26 17:49:15;;;;;;;13.20;5.90;;;22.30;70.80;;;;;;220140;1267;23954;-54
2022/09/26 17:54:31;;;;;;;12.50;5.90;;;22.30;71.10;;;;;;220214;1267;25040;-55
2022/09/26 17:59:35;;;;;;;10.60;5.60;;;22.40;70.90;;;;;;220437;1267;22485;-57
2022/09/26 18:04:40;;;;;;;16.30;5.90;;;22.40;71.60;;;;;;220247;1267;25287;-53
2022/09/26 18:09:43;;;;;;;14.30;5.80;;;22.40;72.50;;;;;;220485;1267;25697;-55
2022/09/26 18:15:13;;;;;;;;;;;;;;;;;;;;;
2022/09/26 18:20:35;;;;;;;12.70;5.90;;;22.40;73.30;;;;;;220220;1267;26623;-54
2022/09/26 18:25:42;;;;;;;16.10;5.50;;;22.40;72.90;;;;;;220233;1267;22855;-56
2022/09/26 18:30:52;;;;;;;13.80;6.50;;;22.40;73.00;;;;;;220156;1267;22611;-55
2022/09/26 18:36:02;;;;;;;14.00;6.10;;;22.40;73.30;;;;;;220206;1267;22530;-56
2022/09/26 18:41:10;;;;;;;10.00;5.70;;;22.40;74.20;;;;;;220692;1267;22694;-54
2022/09/26 18:46:21;;;;;;;10.90;6.60;;;22.40;73.80;;;;;;220547;1267;22556;-56
2022/09/26 18:51:30;;;;;;;14.20;6.20;;;22.40;73.70;;;;;;220866;1267;23170;-51
2022/09/26 19:02:18;;;;;;;11.40;6.10;;;22.20;73.60;;;;;;220577;1267;24272;-49
2022/09/26 19:07:23;;;;;;;13.40;6.50;;;22.20;73.20;;;;;;220355;1267;24208;-51
2022/09/26 19:12:31;;;;;;;14.90;6.40;;;22.10;73.10;;;;;;220321;1267;22541;-52
2022/09/26 19:17:44;;;;;;;13.90;5.80;;;22.00;73.10;;;;;;220588;1267;24064;-50
2022/09/26 19:23:12;;;;;;;10.40;5.70;;;22.00;73.00;;;;;;220305;1267;24365;-51
2022/09/26 19:28:27;;;;;;;15.80;5.90;;;22.00;72.50;;;;;;220778;1267;23197;-47
2022/09/26 19:33:31;;;;;;;17.90;7.00;;;22.00;72.70;;;;;;220295;1267;22557;-50
2022/09/26 19:38:44;;;;;;;16.70;6.40;;;22.00;74.60;;;;;;220494;1267;24051;-50
2022/09/26 19:44:00;;;;;;;15.10;7.10;;;22.00;74.80;;;;;;220186;1267;25404;-50
2022/09/26 19:49:35;;;;;;;12.90;6.50;;;22.00;74.60;;;;;;220589;1267;22554;-51
2022/09/26 19:54:48;;;;;;;12.80;6.90;;;22.00;74.30;;;;;;220556;1267;22705;-51
2022/09/26 20:00:05;;;;;;;17.70;6.80;;;22.10;74.40;;;;;;220227;1267;25328;-48
2022/09/26 20:05:26;;;;;;;16.70;6.50;;;22.10;74.40;;;;;;220269;1267;23070;-49
2022/09/26 20:10:35;;;;;;;14.90;6.60;;;22.10;74.00;;;;;;220484;1267;22648;-51
2022/09/26 20:15:44;;;;;;;16.60;6.00;;;22.20;74.10;;;;;;220299;1267;24300;-50
2022/09/26 20:20:53;;;;;;;21.40;7.60;;;22.10;73.80;;;;;;220404;1267;25239;-49
2022/09/26 20:25:57;;;;;;;18.20;7.70;;;22.00;74.00;;;;;;220503;1267;22537;-47
2022/09/26 20:31:02;;;;;;;16.30;8.00;;;21.90;73.20;;;;;;220387;1267;24688;-52
2022/09/26 20:36:25;;;;;;;16.00;7.20;;;21.90;73.30;;;;;;220705;1267;24307;-53
2022/09/26 20:41:34;;;;;;;20.20;8.10;;;21.90;73.30;;;;;;220491;1267;25304;-49
2022/09/26 20:46:46;;;;;;;18.50;7.40;;;21.90;76.30;;;;;;220503;1267;22551;-51
2022/09/26 20:52:01;;;;;;;20.60;7.80;;;21.90;76.10;;;;;;220642;1267;24213;-48
2022/09/26 20:57:08;;;;;;;20.50;9.00;;;21.90;76.40;;;;;;220339;1267;22936;-48
2022/09/26 21:02:31;;;;;;;25.30;10.50;;;21.90;75.90;;;;;;220647;1267;23211;-51
2022/09/26 21:07:36;;;;;;;19.00;9.00;;;21.90;75.50;;;;;;220517;1267;24406;-50
2022/09/26 21:12:41;;;;;;;19.30;8.60;;;21.80;75.10;;;;;;220523;1267;23173;-47
2022/09/26 21:17:51;;;;;;;19.30;9.00;;;21.80;74.80;;;;;;220606;1267;25189;-53
2022/09/26 21:23:00;;;;;;;18.20;8.20;;;21.80;76.00;;;;;;220483;1267;24255;-50
2022/09/26 21:28:26;;;;;;;22.80;8.80;;;21.80;75.90;;;;;;220247;1267;25578;-50
2022/09/26 21:33:31;;;;;;;18.80;7.30;;;21.80;75.60;;;;;;220277;1267;24309;-48
2022/09/26 21:38:34;;;;;;;24.00;9.00;;;21.80;75.50;;;;;;220305;1267;22653;-52
2022/09/26 21:43:48;;;;;;;21.50;8.60;;;21.80;75.80;;;;;;220242;1267;25411;-49
2022/09/26 21:48:53;;;;;;;17.40;8.20;;;21.80;77.70;;;;;;220659;1267;25546;-48
2022/09/26 21:54:05;;;;;;;14.70;7.70;;;21.90;78.30;;;;;;220331;1267;25249;-52
2022/09/26 21:59:19;;;;;;;14.90;7.90;;;21.90;78.20;;;;;;220223;1267;22577;-48
2022/09/26 22:04:45;;;;;;;14.80;7.10;;;21.80;77.30;;;;;;220286;1267;22690;-50
2022/09/26 22:09:48;;;;;;;14.70;7.50;;;21.80;77.10;;;;;;220507;1267;22825;-51
2022/09/26 22:14:52;;;;;;;15.30;7.80;;;21.80;77.00;;;;;;220453;1267;22561;-50
2022/09/26 22:19:56;;;;;;;16.00;6.80;;;21.80;76.70;;;;;;220467;1267;22575;-49
2022/09/26 22:25:02;;;;;;;15.00;7.30;;;21.80;76.80;;;;;;220209;1267;23261;-51
2022/09/26 22:30:09;;;;;;;12.60;6.80;;;21.80;76.70;;;;;;221675;1267;23132;-51
2022/09/26 22:35:14;;;;;;;13.10;6.90;;;21.70;76.50;;;;;;221405;1267;24282;-52
2022/09/26 22:40:23;;;;;;;13.40;7.90;;;21.80;76.20;;;;;;220445;1267;25571;-50
2022/09/26 22:45:27;;;;;;;16.80;7.60;;;21.70;76.00;;;;;;220381;1267;183409;-49
2022/09/26 22:50:30;;;;;;;16.80;8.30;;;21.70;75.80;;;;;;220623;1267;22830;-53
2022/09/26 22:55:35;;;;;;;14.90;7.30;;;21.70;75.50;;;;;;220716;1267;22648;-49
2022/09/26 23:00:39;;;;;;;13.70;7.50;;;21.70;75.40;;;;;;220517;1267;24334;-50
2022/09/26 23:05:46;;;;;;;14.90;6.60;;;21.70;75.30;;;;;;220328;1267;24217;-51
2022/09/26 23:10:54;;;;;;;14.20;7.70;;;21.60;75.20;;;;;;220034;1270;22551;-51
2022/09/26 23:16:09;;;;;;;12.40;6.80;;;21.60;75.30;;;;;;220378;1267;22606;-53
2022/09/26 23:21:16;;;;;;;13.70;7.40;;;21.60;74.90;;;;;;220355;1267;24239;-51
2022/09/26 23:26:25;;;;;;;15.20;7.00;;;21.60;74.80;;;;;;220217;1268;25213;-49
2022/09/26 23:31:29;;;;;;;12.70;7.10;;;21.60;74.70;;;;;;222888;1268;23939;-47
2022/09/26 23:36:34;;;;;;;11.90;6.50;;;21.60;74.90;;;;;;220524;1267;25285;-48
2022/09/26 23:41:37;;;;;;;14.20;7.20;;;21.60;74.60;;;;;;220490;1267;25249;-47
2022/09/26 23:46:41;;;;;;;13.30;6.90;;;21.60;73.90;;;;;;220432;1267;22548;-48
2022/09/26 23:51:46;;;;;;;15.10;7.60;;;21.50;74.10;;;;;;220578;1267;22549;-51
2022/09/26 23:56:49;;;;;;;12.60;6.80;;;21.50;74.00;;;;;;220697;1267;22825;-47
